Time;durP1;ratioP1;P1;durP2;ratioP2;P2;SDS_P1;SDS_P2;PMS_P1;PMS_P2;Temp;Humidity;BMP_temperature;BMP_pressure;BME280_temperature;BME280_humidity;BME280_pressure;Samples;Min_cycle;Max_cycle;Signal;HPM_P1;HPM_P2
2023/09/28 00:04:22;;;;;;;;;;;;;;;17.95;100.00;101214.56;10402407;28;20486;-67
2023/09/28 00:09:25;;;;;;;1999.90;999.90;;;;;;;17.82;100.00;101238.56;10418354;28;19921;-67
2023/09/28 00:14:28;;;;;;;1999.90;999.90;;;;;;;17.58;100.00;101245.81;10400414;28;20052;-67
2023/09/28 00:19:30;;;;;;;1999.90;999.90;;;;;;;17.61;100.00;101248.22;10418013;28;20056;-67
2023/09/28 00:24:33;;;;;;;1999.90;999.90;;;;;;;17.79;100.00;101248.56;10417902;28;20057;-67
2023/09/28 00:29:35;;;;;;;1999.90;999.90;;;;;;;17.63;100.00;101257.75;10417730;28;20045;-67
2023/09/28 00:34:38;;;;;;;1999.90;999.90;;;;;;;17.23;100.00;101268.84;10417587;28;20065;-67
2023/09/28 00:39:40;;;;;;;1999.90;999.90;;;;;;;17.36;100.00;101265.22;10400219;28;20091;-67
2023/09/28 00:44:42;;;;;;;1999.90;999.90;;;;;;;17.19;100.00;101266.53;10399675;28;20060;-68
2023/09/28 00:49:46;;;;;;;1999.90;999.90;;;;;;;17.02;100.00;101263.41;10416434;28;20132;-67
2023/09/28 00:54:49;;;;;;;1999.90;999.90;;;;;;;16.96;100.00;101271.81;10416206;28;20057;-67
2023/09/28 00:59:52;;;;;;;1999.90;999.90;;;;;;;16.91;100.00;101284.53;10399154;28;20048;-67
2023/09/28 01:04:54;;;;;;;1999.90;999.90;;;;;;;16.69;100.00;101280.88;10416516;28;20057;-67
2023/09/28 01:09:57;;;;;;;1999.90;999.90;;;;;;;16.56;100.00;101277.47;10416134;28;20056;-67
2023/09/28 01:14:59;;;;;;;1999.90;999.90;;;;;;;16.39;100.00;101286.66;10415563;28;20482;-67
2023/09/28 01:20:17;;;;;;;1999.90;999.90;;;;;;;16.31;100.00;101292.50;10397847;28;20481;-67
2023/09/28 01:25:20;;;;;;;1999.90;999.90;;;;;;;16.25;100.00;101295.59;10399869;28;20050;-67
2023/09/28 01:30:23;;;;;;;1999.90;999.90;;;;;;;16.24;100.00;101293.91;10415855;28;20046;-67
2023/09/28 01:35:28;;;;;;;1999.90;999.90;;;;;;;16.13;100.00;101285.91;10381858;28;20045;-67
2023/09/28 01:40:31;;;;;;;1999.90;999.90;;;;;;;15.81;100.00;101304.94;10398060;28;20052;-67
2023/09/28 01:45:33;;;;;;;1999.90;999.90;;;;;;;15.91;100.00;101302.50;10415430;28;20049;-67
2023/09/28 01:50:36;;;;;;;1999.90;999.90;;;;;;;15.90;100.00;101306.94;10415321;28;20045;-67
2023/09/28 01:55:38;;;;;;;1999.90;999.90;;;;;;;15.77;100.00;101301.69;10397068;28;20490;-67
2023/09/28 02:00:44;;;;;;;1999.90;999.90;;;;;;;15.62;100.00;101313.28;10414481;28;20049;-67
2023/09/28 02:05:47;;;;;;;1999.90;999.90;;;;;;;15.45;100.00;101316.25;10423863;28;20171;-67
2023/09/28 02:10:50;;;;;;;1999.90;999.90;;;;;;;15.41;100.00;101318.25;10422804;28;20049;-67
2023/09/28 02:15:52;;;;;;;1999.90;999.90;;;;;;;15.23;100.00;101323.00;10422994;28;20064;-67
2023/09/28 02:20:55;;;;;;;1999.90;999.90;;;;;;;15.10;100.00;101330.09;10422067;28;20099;-67
2023/09/28 02:26:05;;;;;;;1999.90;999.90;;;;;;;15.33;100.00;101331.16;10421956;28;20072;-67
2023/09/28 02:31:08;;;;;;;1999.90;999.90;;;;;;;15.06;100.00;101337.34;10405096;28;20061;-67
2023/09/28 02:36:11;;;;;;;1999.90;999.90;;;;;;;16.02;100.00;101336.91;10387872;28;20478;-67
2023/09/28 02:41:20;;;;;;;1999.90;999.90;;;;;;;16.28;100.00;101327.06;10421250;28;20406;-67
2023/09/28 02:46:24;;;;;;;1999.90;999.90;;;;;;;15.82;100.00;101340.97;10421973;28;20045;-67
2023/09/28 02:51:27;;;;;;;1999.90;999.90;;;;;;;15.70;100.00;101332.06;10421097;28;20489;-67
2023/09/28 02:56:29;;;;;;;1999.90;999.90;;;;;;;15.49;100.00;101341.50;10421573;28;20077;-67
2023/09/28 03:01:32;;;;;;;1999.90;999.90;;;;;;;15.37;100.00;101341.38;10421134;28;20481;-67
2023/09/28 03:06:40;;;;;;;1999.90;999.90;;;;;;;15.48;100.00;101347.72;10420943;28;20410;-67
2023/09/28 03:11:43;;;;;;;1999.90;999.90;;;;;;;15.35;100.00;101353.84;10403041;28;20077;-67
2023/09/28 03:16:45;;;;;;;1999.90;999.90;;;;;;;15.39;100.00;101367.66;10403355;28;20049;-67
2023/09/28 03:21:47;;;;;;;1999.90;999.90;;;;;;;15.22;100.00;101361.75;10402877;28;20107;-67
2023/09/28 03:26:51;;;;;;;1999.90;999.90;;;;;;;15.25;100.00;101365.97;10420316;28;20049;-68
2023/09/28 03:32:10;;;;;;;1999.90;999.90;;;;;;;14.99;100.00;101379.09;10420262;28;20072;-67
2023/09/28 03:37:18;;;;;;;1999.90;999.90;;;;;;;15.29;100.00;101379.81;10420024;28;20107;-67
2023/09/28 03:42:21;;;;;;;1999.90;999.90;;;;;;;15.27;100.00;101384.34;10419609;28;20053;-67
2023/09/28 03:47:23;;;;;;;1999.90;999.90;;;;;;;15.00;100.00;101396.63;10419497;28;20073;-67
2023/09/28 03:52:25;;;;;;;1999.90;999.90;;;;;;;15.11;100.00;101403.81;10419291;28;20057;-67
2023/09/28 03:57:28;;;;;;;1999.90;999.90;;;;;;;15.14;100.00;101403.63;10418371;28;20402;-67
2023/09/28 04:02:31;;;;;;;1999.90;999.90;;;;;;;14.97;100.00;101417.94;10418888;28;20050;-67
2023/09/28 04:07:33;;;;;;;1999.90;999.90;;;;;;;15.05;100.00;101423.53;10418688;28;20052;-67
2023/09/28 04:12:36;;;;;;;1999.90;999.90;;;;;;;15.48;100.00;101440.06;10418316;28;20166;-67
2023/09/28 04:17:38;;;;;;;1999.90;999.90;;;;;;;15.13;100.00;101428.31;10418192;28;20052;-67
2023/09/28 04:22:46;;;;;;;1999.90;999.90;;;;;;;15.06;100.00;101429.66;10417477;28;20132;-67
2023/09/28 04:27:49;;;;;;;1999.90;999.90;;;;;;;15.23;100.00;101420.59;10416991;28;20073;-67
2023/09/28 04:32:54;;;;;;;1999.90;999.90;;;;;;;15.19;100.00;101432.31;10417690;28;20056;-67
2023/09/28 04:37:56;;;;;;;1999.90;999.90;;;;;;;15.43;100.00;101435.09;10416790;28;20513;-67
2023/09/28 04:42:59;;;;;;;1999.90;999.90;;;;;;;15.08;100.00;101426.91;10417362;28;20049;-67
2023/09/28 04:48:01;;;;;;;1999.90;999.90;;;;;;;15.09;100.00;101418.91;10417143;28;20104;-67
2023/09/28 04:53:04;;;;;;;1999.90;999.90;;;;;;;14.84;100.00;101432.84;10417454;28;20060;-67
2023/09/28 04:58:07;;;;;;;1999.90;999.90;;;;;;;14.92;100.00;101440.28;10416049;28;20489;-66
2023/09/28 05:03:11;;;;;;;1999.90;999.90;;;;;;;15.15;100.00;101449.31;10416608;28;20051;-67
2023/09/28 05:08:13;;;;;;;1999.90;999.90;;;;;;;15.74;100.00;101428.56;10416513;28;20041;-67
2023/09/28 05:13:16;;;;;;;1999.90;999.90;;;;;;;15.33;100.00;101434.91;10398563;28;20088;-67
2023/09/28 05:18:18;;;;;;;1999.90;999.90;;;;;;;15.26;100.00;101456.50;10415371;28;20398;-67
2023/09/28 05:23:20;;;;;;;1999.90;999.90;;;;;;;15.47;100.00;101465.63;10397985;28;20049;-67
2023/09/28 05:28:23;;;;;;;1999.90;999.90;;;;;;;15.75;100.00;101466.38;10415256;28;20071;-67
2023/09/28 05:33:25;;;;;;;1999.90;999.90;;;;;;;15.63;100.00;101475.13;10415097;28;20128;-66
2023/09/28 05:38:27;;;;;;;1999.90;999.90;;;;;;;15.68;100.00;101475.66;10414684;28;20076;-67
2023/09/28 05:43:30;;;;;;;1999.90;999.90;;;;;;;15.34;100.00;101496.41;10415517;28;20107;-67
2023/09/28 05:48:32;;;;;;;1999.90;999.90;;;;;;;15.77;100.00;101493.56;10415417;28;20049;-67
2023/09/28 05:53:35;;;;;;;1999.90;999.90;;;;;;;15.86;100.00;101497.38;10415296;28;20057;-67
2023/09/28 05:58:37;;;;;;;1999.90;999.90;;;;;;;15.97;100.00;101513.31;10396897;28;20491;-67
2023/09/28 06:03:40;;;;;;;1999.90;999.90;;;;;;;15.96;100.00;101530.94;10415072;28;20053;-67
2023/09/28 06:08:43;;;;;;;1999.90;999.90;;;;;;;15.93;100.00;101527.66;10414538;28;20438;-67
2023/09/28 06:13:45;;;;;;;1999.90;999.90;;;;;;;16.01;100.00;101533.28;10397244;28;20056;-66
2023/09/28 06:18:51;;;;;;;1999.90;999.90;;;;;;;16.18;100.00;101533.91;10397783;28;20052;-66
2023/09/28 06:23:54;;;;;;;1999.90;999.90;;;;;;;16.11;100.00;101544.91;10414718;28;20057;-66
2023/09/28 06:28:56;;;;;;;1999.90;999.90;;;;;;;16.09;100.00;101533.59;10414629;28;20049;-66
2023/09/28 06:33:59;;;;;;;1999.90;999.90;;;;;;;16.12;100.00;101528.09;10414616;28;20049;-66
2023/09/28 06:39:03;;;;;;;1999.90;999.90;;;;;;;16.27;100.00;101526.19;10414371;28;20045;-66
2023/09/28 06:44:06;;;;;;;1999.90;999.90;;;;;;;16.38;100.00;101517.50;10414315;28;20068;-66
2023/09/28 06:49:09;;;;;;;1999.90;999.90;;;;;;;16.44;100.00;101526.78;10400341;28;20045;-67
2023/09/28 06:54:11;;;;;;;1999.90;999.90;;;;;;;16.44;100.00;101538.22;10404027;28;20053;-67
2023/09/28 06:59:14;;;;;;;1999.90;999.90;;;;;;;16.48;100.00;101541.50;10420651;28;20041;-66
2023/09/28 07:04:16;;;;;;;1999.90;999.90;;;;;;;16.68;100.00;101540.06;10421150;28;20049;-67
2023/09/28 07:09:18;;;;;;;1999.90;999.90;;;;;;;16.79;100.00;101550.72;10420919;28;20052;-67
2023/09/28 07:14:21;;;;;;;1999.90;999.90;;;;;;;17.20;100.00;101559.31;10420569;28;20410;-67
2023/09/28 07:19:24;;;;;;;1999.90;999.90;;;;;;;17.24;100.00;101556.28;10419868;28;20445;-67
2023/09/28 07:24:29;;;;;;;1999.90;999.90;;;;;;;17.39;100.00;101567.56;10402857;28;20049;-67
2023/09/28 07:29:32;;;;;;;1999.90;999.90;;;;;;;17.69;100.00;101573.34;10420252;28;20052;-67
2023/09/28 07:34:35;;;;;;;1999.90;999.90;;;;;;;17.93;100.00;101570.66;10420012;28;20049;-68
2023/09/28 07:39:38;;;;;;;1999.90;999.90;;;;;;;18.26;99.09;101553.13;10419612;28;20475;-68
2023/09/28 07:44:40;;;;;;;1999.90;999.90;;;;;;;18.32;97.73;101553.47;10419003;28;20410;-68
2023/09/28 07:49:42;;;;;;;1999.90;999.90;;;;;;;18.77;95.47;101573.00;10419419;28;20120;-68
2023/09/28 07:54:45;;;;;;;1999.90;999.90;;;;;;;18.98;91.82;101579.25;10419765;28;20057;-68
2023/09/28 07:59:47;;;;;;;1999.90;999.90;;;;;;;19.32;89.49;101587.13;10401436;28;20050;-69
2023/09/28 08:04:51;;;;;;;1999.90;999.90;;;;;;;19.35;89.01;101612.56;10401299;28;20052;-69
2023/09/28 08:09:54;;;;;;;1999.90;999.90;;;;;;;19.80;89.37;101618.59;10401152;28;20051;-69
2023/09/28 08:14:56;;;;;;;1999.90;999.90;;;;;;;19.73;86.93;101619.19;10417803;28;20384;-69
2023/09/28 08:19:59;;;;;;;1999.90;999.90;;;;;;;19.87;83.83;101624.25;10417441;28;20125;-67
2023/09/28 08:25:01;;;;;;;1999.90;999.90;;;;;;;19.89;82.73;101632.91;10400531;28;20100;-67
2023/09/28 08:30:05;;;;;;;1999.90;999.90;;;;;;;20.18;81.77;101626.94;10400284;28;20045;-68
2023/09/28 08:35:11;;;;;;;1999.90;999.90;;;;;;;20.20;79.73;101614.38;10417612;28;20049;-65
2023/09/28 08:40:13;;;;;;;1999.90;999.90;;;;;;;20.23;80.79;101630.06;10417740;28;20057;-66
2023/09/28 08:45:16;;;;;;;1999.90;999.90;;;;;;;20.84;77.83;101610.63;10399904;28;20133;-66
2023/09/28 08:50:33;;;;;;;1999.90;999.90;;;;;;;21.17;76.32;101629.06;10383531;28;20049;-66
2023/09/28 08:55:40;;;;;;;1999.90;999.90;;;;;;;22.14;75.67;101633.56;10398871;28;20450;-66
2023/09/28 09:00:42;;;;;;;1999.90;999.90;;;;;;;20.44;77.20;101629.19;10416193;28;20474;-66
2023/09/28 09:05:46;;;;;;;1999.90;999.90;;;;;;;20.02;77.79;101662.81;10399029;28;20132;-66
2023/09/28 09:10:51;;;;;;;1999.90;999.90;;;;;;;20.90;78.39;101652.66;10415289;28;20132;-66
2023/09/28 09:15:53;;;;;;;1999.90;999.90;;;;;;;20.50;77.50;101655.28;10416850;28;20053;-66
2023/09/28 09:21:00;;;;;;;1999.90;999.90;;;;;;;20.83;76.94;101663.97;10398460;28;20052;-66
2023/09/28 09:26:03;;;;;;;1999.90;999.90;;;;;;;20.40;79.42;101660.53;10382270;22;20501;-72
2023/09/28 09:31:05;;;;;;;1999.90;999.90;;;;;;;19.75;78.60;101665.94;10415869;28;20148;-74
2023/09/28 09:36:08;;;;;;;1999.90;999.90;;;;;;;20.77;78.18;101668.03;10415576;28;20111;-73
2023/09/28 09:41:11;;;;;;;1999.90;999.90;;;;;;;21.11;75.27;101665.88;10414977;28;20494;-72
2023/09/28 09:46:13;;;;;;;1999.90;999.90;;;;;;;20.96;74.65;101673.44;10397563;28;20409;-72
2023/09/28 09:51:17;;;;;;;1999.90;999.90;;;;;;;21.71;72.54;101670.38;10415400;28;20042;-72
2023/09/28 09:56:20;;;;;;;1999.90;999.90;;;;;;;22.26;72.41;101670.59;10397253;28;20437;-72
2023/09/28 10:01:23;;;;;;;1999.90;999.90;;;;;;;20.88;73.64;101667.94;10381535;28;20084;-72
2023/09/28 10:06:25;;;;;;;1999.90;999.90;;;;;;;20.65;74.77;101671.75;10415063;28;20095;-72
2023/09/28 10:11:28;;;;;;;1999.90;999.90;;;;;;;23.34;68.56;101667.53;10414980;28;20121;-72
2023/09/28 10:16:30;;;;;;;1999.90;999.90;;;;;;;21.60;71.72;101662.50;10381489;28;20111;-72
2023/09/28 10:21:38;;;;;;;1999.90;999.90;;;;;;;23.37;67.52;101662.72;10396596;28;20057;-73
2023/09/28 10:26:49;;;;;;;1999.90;999.90;;;;;;;23.58;62.07;101652.75;10404670;28;20060;-73
2023/09/28 10:31:53;;;;;;;1999.90;999.90;;;;;;;24.11;62.83;101650.03;10422496;28;20045;-72
2023/09/28 10:37:07;;;;;;;1999.90;999.90;;;;;;;24.98;60.10;101643.81;10405400;28;20080;-72
2023/09/28 10:42:17;;;;;;;1999.90;999.90;;;;;;;26.16;59.42;101632.91;10421317;28;20442;-73
2023/09/28 10:47:23;;;;;;;1999.90;999.90;;;;;;;24.32;61.38;101645.31;10421915;28;20049;-74
2023/09/28 10:52:28;;;;;;;1999.90;999.90;;;;;;;25.90;57.48;101636.59;10404216;28;20051;-73
2023/09/28 10:57:32;;;;;;;1999.90;999.90;;;;;;;24.53;58.15;101651.13;10421430;28;20053;-73
2023/09/28 11:02:36;;;;;;;1999.90;999.90;;;;;;;25.94;56.05;101655.84;10403026;28;20494;-74
2023/09/28 11:07:40;;;;;;;1999.90;999.90;;;;;;;26.34;55.06;101654.16;10421110;28;20128;-74
2023/09/28 11:12:42;;;;;;;1999.90;999.90;;;;;;;26.41;55.68;101655.16;10386717;28;20356;-73
2023/09/28 11:17:47;;;;;;;1999.90;999.90;;;;;;;25.40;60.59;101659.88;10420784;28;20057;-74
2023/09/28 11:22:56;;;;;;;1999.90;999.90;;;;;;;24.30;60.36;101666.88;10420572;28;20125;-74
2023/09/28 11:27:59;;;;;;;1999.90;999.90;;;;;;;23.22;62.17;101668.72;10420207;28;20053;-73
2023/09/28 11:33:05;;;;;;;1999.90;999.90;;;;;;;23.03;62.84;101677.66;10402077;28;20080;-73
2023/09/28 11:38:11;;;;;;;1999.90;999.90;;;;;;;21.58;68.45;101693.78;10403258;28;20054;-73
2023/09/28 11:43:14;;;;;;;1999.90;999.90;;;;;;;22.05;67.99;101683.25;10371926;28;20099;-73
2023/09/28 11:48:22;;;;;;;1999.90;999.90;;;;;;;21.60;67.49;101675.81;10421001;28;20054;-73
2023/09/28 11:53:25;;;;;;;1999.90;999.90;;;;;;;24.17;62.17;101671.81;10386227;28;20136;-73
2023/09/28 11:58:27;;;;;;;1999.90;999.90;;;;;;;22.74;61.81;101678.63;10402289;28;20081;-71
2023/09/28 12:03:30;;;;;;;1999.90;999.90;;;;;;;23.80;62.35;101662.13;10384657;28;20528;-71
2023/09/28 12:08:33;;;;;;;1999.90;999.90;;;;;;;23.93;63.63;101654.56;10401246;28;20058;-72
2023/09/28 12:13:36;;;;;;;1999.90;999.90;;;;;;;24.61;61.82;101648.53;10417925;28;20486;-71
2023/09/28 12:18:39;;;;;;;1999.90;999.90;;;;;;;22.75;61.94;101656.31;10417603;28;20042;-71
2023/09/28 12:23:41;;;;;;;1999.90;999.90;;;;;;;23.67;62.64;101662.50;10418553;28;20056;-71
2023/09/28 12:28:44;;;;;;;1999.90;999.90;;;;;;;23.46;65.65;101660.16;10399648;28;20495;-72
2023/09/28 12:33:46;;;;;;;1999.90;999.90;;;;;;;22.27;65.32;101660.75;10417648;28;20056;-70
2023/09/28 12:38:51;;;;;;;1999.90;999.90;;;;;;;22.54;65.80;101651.19;10400202;28;20046;-71
2023/09/28 12:43:54;;;;;;;1999.90;999.90;;;;;;;24.13;64.43;101663.25;10418014;28;20045;-71
2023/09/28 12:48:57;;;;;;;1999.90;999.90;;;;;;;23.42;62.90;101656.06;10416670;28;20147;-70
2023/09/28 12:53:59;;;;;;;1999.90;999.90;;;;;;;23.71;63.56;101648.69;10416225;28;20052;-71
2023/09/28 12:59:02;;;;;;;1999.90;999.90;;;;;;;22.32;66.44;101649.69;10416144;28;20048;-72
2023/09/28 13:04:05;;;;;;;1999.90;999.90;;;;;;;24.03;59.55;101646.47;10416677;28;20046;-72
2023/09/28 13:09:08;;;;;;;1999.90;999.90;;;;;;;23.44;63.80;101638.09;10416783;28;20056;-71
2023/09/28 13:14:10;;;;;;;1999.90;999.90;;;;;;;24.00;59.16;101633.41;10416371;28;20049;-71
2023/09/28 13:19:16;;;;;;;1999.90;999.90;;;;;;;25.23;56.44;101615.25;10416481;28;20045;-71
2023/09/28 13:24:21;;;;;;;1999.90;999.90;;;;;;;23.51;59.01;101615.09;10415828;28;20132;-72
2023/09/28 13:29:23;;;;;;;1999.90;999.90;;;;;;;24.52;58.66;101598.59;10415347;28;20479;-70
2023/09/28 13:34:26;;;;;;;1999.90;999.90;;;;;;;24.10;59.09;101602.03;10415696;28;20056;-71
2023/09/28 13:39:33;;;;;;;1999.90;999.90;;;;;;;24.70;57.40;101585.16;10415252;28;20045;-71
2023/09/28 13:44:35;;;;;;;1999.90;999.90;;;;;;;23.03;61.88;101606.38;10398116;28;20060;-71
2023/09/28 13:49:39;;;;;;;1999.90;999.90;;;;;;;23.81;60.72;101621.88;10398140;28;20079;-71
2023/09/28 13:54:42;;;;;;;1999.90;999.90;;;;;;;24.14;61.24;101610.59;10415300;28;20045;-72
2023/09/28 13:59:45;;;;;;;1999.90;999.90;;;;;;;23.78;61.52;101619.50;10421966;28;20046;-69
2023/09/28 14:04:47;;;;;;;1999.90;999.90;;;;;;;23.34;62.25;101616.78;10423615;28;20060;-71
2023/09/28 14:09:50;;;;;;;1999.90;999.90;;;;;;;23.81;61.67;101618.38;10423393;28;20045;-71
2023/09/28 14:14:55;;;;;;;1999.90;999.90;;;;;;;23.59;62.26;101622.34;10422626;28;20521;-71
2023/09/28 14:19:58;;;;;;;1999.90;999.90;;;;;;;23.68;60.87;101614.22;10422943;28;20049;-70
2023/09/28 14:25:00;;;;;;;1999.90;999.90;;;;;;;23.00;63.91;101622.75;10404636;28;20063;-71
2023/09/28 14:30:06;;;;;;;1999.90;999.90;;;;;;;22.78;63.69;101640.84;10421941;28;20049;-71
2023/09/28 14:35:09;;;;;;;1999.90;999.90;;;;;;;22.70;63.82;101647.91;10404604;28;20491;-71
2023/09/28 14:40:14;;;;;;;1999.90;999.90;;;;;;;22.77;63.19;101627.63;10422125;28;20049;-71
2023/09/28 14:45:19;;;;;;;1999.90;999.90;;;;;;;22.91;63.04;101612.94;10421441;28;20060;-71
2023/09/28 14:50:22;;;;;;;1999.90;999.90;;;;;;;22.29;65.81;101593.97;10421819;28;20046;-71
2023/09/28 14:55:24;;;;;;;1999.90;999.90;;;;;;;21.89;71.28;101591.38;10421147;28;20410;-71
2023/09/28 15:00:26;;;;;;;1999.90;999.90;;;;;;;21.68;73.67;101585.38;10420752;28;20053;-71
2023/09/28 15:05:29;;;;;;;1999.90;999.90;;;;;;;21.75;73.59;101557.16;10421789;28;20049;-71
2023/09/28 15:10:31;;;;;;;1999.90;999.90;;;;;;;20.79;78.31;101570.25;10420245;28;20073;-71
2023/09/28 15:15:34;;;;;;;1999.90;999.90;;;;;;;20.46;83.00;101561.59;10420936;28;20053;-71
2023/09/28 15:20:38;;;;;;;1999.90;999.90;;;;;;;20.08;84.51;101556.94;10420589;28;20057;-71
2023/09/28 15:25:41;;;;;;;1999.90;999.90;;;;;;;20.04;86.07;101556.38;10402488;28;20441;-72
2023/09/28 15:30:50;;;;;;;1999.90;999.90;;;;;;;20.12;89.25;101564.50;10420296;28;20052;-72
2023/09/28 15:35:54;;;;;;;1999.90;999.90;;;;;;;20.14;91.13;101570.56;10420088;28;20053;-72
2023/09/28 15:41:03;;;;;;;1999.90;999.90;;;;;;;20.11;92.96;101580.59;10387444;28;20486;-71
2023/09/28 15:46:06;;;;;;;1999.90;999.90;;;;;;;19.78;96.77;101577.16;10419881;28;20053;-71
2023/09/28 15:51:09;;;;;;;1999.90;999.90;;;;;;;19.95;98.99;101575.75;10419535;28;20120;-71
2023/09/28 15:56:11;;;;;;;1999.90;999.90;;;;;;;19.61;100.00;101562.63;10419300;28;20056;-71
2023/09/28 16:01:15;;;;;;;1999.90;999.90;;;;;;;19.41;100.00;101581.03;10418422;28;20050;-71
2023/09/28 16:06:17;;;;;;;1999.90;999.90;;;;;;;19.40;100.00;101565.22;10401619;28;20053;-71
2023/09/28 16:11:21;;;;;;;1999.90;999.90;;;;;;;19.31;100.00;101578.28;10418731;28;20042;-71
2023/09/28 16:16:25;;;;;;;1999.90;999.90;;;;;;;19.22;100.00;101572.94;10418676;28;20079;-71
2023/09/28 16:21:27;;;;;;;1999.90;999.90;;;;;;;19.07;100.00;101573.19;10417135;28;20111;-70
2023/09/28 16:26:30;;;;;;;1999.90;999.90;;;;;;;18.80;100.00;101575.41;10417597;28;20053;-70
2023/09/28 16:31:32;;;;;;;1999.90;999.90;;;;;;;18.87;100.00;101566.84;10417935;28;20049;-70
2023/09/28 16:36:35;;;;;;;1999.90;999.90;;;;;;;18.49;100.00;101565.41;10399872;28;20056;-70
2023/09/28 16:41:37;;;;;;;1999.90;999.90;;;;;;;18.60;100.00;101561.91;10416770;28;20406;-71
2023/09/28 16:46:40;;;;;;;1999.90;999.90;;;;;;;18.53;100.00;101550.94;10416655;28;20549;-71
2023/09/28 16:51:42;;;;;;;1999.90;999.90;;;;;;;18.49;100.00;101548.66;10417247;28;20046;-71
2023/09/28 16:56:45;;;;;;;1999.90;999.90;;;;;;;18.25;100.00;101543.47;10416406;28;20046;-71
2023/09/28 17:01:47;;;;;;;1999.90;999.90;;;;;;;18.16;100.00;101540.56;10398641;28;20437;-70
2023/09/28 17:06:50;;;;;;;1999.90;999.90;;;;;;;17.97;100.00;101538.53;10398730;28;20458;-71
2023/09/28 17:11:53;;;;;;;1999.90;999.90;;;;;;;17.76;100.00;101535.66;10415812;28;20049;-70
2023/09/28 17:16:55;;;;;;;1999.90;999.90;;;;;;;17.44;100.00;101553.97;10416365;28;20049;-70
2023/09/28 17:21:57;;;;;;;1999.90;999.90;;;;;;;17.43;100.00;101547.00;10416073;28;20048;-70
2023/09/28 17:27:00;;;;;;;1999.90;999.90;;;;;;;17.14;100.00;101550.00;10415464;28;20053;-70
2023/09/28 17:32:03;;;;;;;1999.90;999.90;;;;;;;16.96;100.00;101549.53;10415506;28;20049;-70
2023/09/28 17:37:08;;;;;;;1999.90;999.90;;;;;;;16.75;100.00;101551.06;10397635;28;20133;-70
2023/09/28 17:42:11;;;;;;;1999.90;999.90;;;;;;;16.64;100.00;101555.31;10398726;28;20052;-70
2023/09/28 17:47:13;;;;;;;1999.90;999.90;;;;;;;16.58;100.00;101560.19;10415698;28;20129;-70
2023/09/28 17:52:16;;;;;;;1999.90;999.90;;;;;;;16.82;100.00;101573.47;10415418;28;20086;-70
2023/09/28 17:57:19;;;;;;;1999.90;999.90;;;;;;;16.75;100.00;101577.50;10398558;28;20049;-70
2023/09/28 18:02:22;;;;;;;1999.90;999.90;;;;;;;16.67;100.00;101565.66;10415092;28;20046;-70
2023/09/28 18:07:25;;;;;;;1999.90;999.90;;;;;;;16.62;100.00;101567.78;10397803;28;20056;-70
2023/09/28 18:12:28;;;;;;;1999.90;999.90;;;;;;;16.57;100.00;101583.13;10415447;28;20050;-70
2023/09/28 18:17:31;;;;;;;1999.90;999.90;;;;;;;16.62;100.00;101581.00;10414325;28;20115;-70
2023/09/28 18:22:34;;;;;;;1999.90;999.90;;;;;;;16.47;100.00;101587.38;10414740;28;20077;-70
2023/09/28 18:27:39;;;;;;;1999.90;999.90;;;;;;;16.63;100.00;101603.00;10414474;28;20108;-70
2023/09/28 18:32:42;;;;;;;1999.90;999.90;;;;;;;16.58;100.00;101599.84;10414639;28;20056;-70
2023/09/28 18:37:44;;;;;;;1999.90;999.90;;;;;;;16.58;100.00;101591.91;10414728;28;20053;-70
2023/09/28 18:42:46;;;;;;;1999.90;999.90;;;;;;;16.37;100.00;101591.59;10413801;28;20505;-70
2023/09/28 18:47:49;;;;;;;1999.90;999.90;;;;;;;16.15;100.00;101588.66;10422077;28;20056;-70
2023/09/28 18:52:51;;;;;;;1999.90;999.90;;;;;;;15.97;100.00;101592.56;10421687;28;20071;-70
2023/09/28 18:57:53;;;;;;;1999.90;999.90;;;;;;;15.86;100.00;101592.41;10421096;28;20433;-70
2023/09/28 19:02:56;;;;;;;1999.90;999.90;;;;;;;15.83;100.00;101596.09;10420728;28;20085;-70
2023/09/28 19:08:03;;;;;;;1999.90;999.90;;;;;;;15.55;100.00;101597.91;10420604;28;20434;-70
2023/09/28 19:13:06;;;;;;;1999.90;999.90;;;;;;;15.57;100.00;101603.09;10421014;28;20077;-70
2023/09/28 19:18:08;;;;;;;1999.90;999.90;;;;;;;15.55;100.00;101604.97;10420875;28;20083;-70
2023/09/28 19:23:11;;;;;;;1999.90;999.90;;;;;;;15.53;100.00;101597.19;10403015;28;20129;-70
2023/09/28 19:28:16;;;;;;;1999.90;999.90;;;;;;;15.47;100.00;101594.09;10420194;28;20062;-70
2023/09/28 19:33:18;;;;;;;1999.90;999.90;;;;;;;15.39;100.00;101591.94;10419716;28;20482;-70
2023/09/28 19:38:21;;;;;;;1999.90;999.90;;;;;;;15.32;100.00;101583.56;10402574;28;20057;-70
2023/09/28 19:43:24;;;;;;;1999.90;999.90;;;;;;;15.32;100.00;101583.56;10419837;28;20051;-70
2023/09/28 19:48:26;;;;;;;1999.90;999.90;;;;;;;15.20;100.00;101573.81;10419681;28;20053;-70
2023/09/28 19:53:29;;;;;;;1999.90;999.90;;;;;;;15.23;100.00;101568.31;10401968;28;20053;-69
2023/09/28 19:58:31;;;;;;;1999.90;999.90;;;;;;;15.01;100.00;101563.59;10418440;28;20454;-70
2023/09/28 20:03:33;;;;;;;1999.90;999.90;;;;;;;15.06;100.00;101558.88;10400837;28;20426;-70
2023/09/28 20:08:37;;;;;;;1999.90;999.90;;;;;;;15.01;100.00;101558.31;10419048;28;20129;-70
2023/09/28 20:13:39;;;;;;;1999.90;999.90;;;;;;;14.95;100.00;101556.94;10401189;28;20049;-69
2023/09/28 20:18:43;;;;;;;1999.90;999.90;;;;;;;15.01;100.00;101564.47;10400983;28;20049;-70
2023/09/28 20:23:45;;;;;;;1999.90;999.90;;;;;;;15.15;100.00;101566.19;10418156;28;20045;-69
2023/09/28 20:28:48;;;;;;;1999.90;999.90;;;;;;;15.03;100.00;101572.28;10417416;28;20111;-70
2023/09/28 20:33:51;;;;;;;1999.90;999.90;;;;;;;15.16;100.00;101581.09;10417875;28;20053;-70
2023/09/28 20:38:54;;;;;;;1999.90;999.90;;;;;;;15.15;100.00;101578.56;10399637;28;20119;-69
2023/09/28 20:43:56;;;;;;;1999.90;999.90;;;;;;;15.22;100.00;101570.13;10416781;28;20053;-70
2023/09/28 20:49:00;;;;;;;1999.90;999.90;;;;;;;15.18;100.00;101562.50;10417721;28;20175;-70
2023/09/28 20:54:02;;;;;;;1999.90;999.90;;;;;;;15.20;100.00;101539.53;10417339;28;20103;-69
2023/09/28 20:59:05;;;;;;;1999.90;999.90;;;;;;;15.26;100.00;101541.75;10416622;28;20517;-70
2023/09/28 21:04:08;;;;;;;1999.90;999.90;;;;;;;15.31;100.00;101523.00;10416018;28;20128;-69
2023/09/28 21:09:12;;;;;;;1999.90;999.90;;;;;;;15.32;100.00;101524.69;10398193;28;20406;-69
2023/09/28 21:14:15;;;;;;;1999.90;999.90;;;;;;;15.51;100.00;101534.88;10415726;28;20574;-69
2023/09/28 21:19:18;;;;;;;1999.90;999.90;;;;;;;15.48;100.00;101512.16;10415598;28;20478;-69
2023/09/28 21:24:20;;;;;;;1999.90;999.90;;;;;;;15.33;100.00;101523.72;10415085;28;20508;-69
2023/09/28 21:29:26;;;;;;;1999.90;999.90;;;;;;;15.30;100.00;101527.44;10415948;28;20053;-70
2023/09/28 21:34:29;;;;;;;1999.90;999.90;;;;;;;15.32;100.00;101535.25;10398343;28;20049;-70
2023/09/28 21:39:32;;;;;;;1999.90;999.90;;;;;;;15.36;100.00;101536.72;10427587;22;20136;-72
2023/09/28 21:44:39;;;;;;;1999.90;999.90;;;;;;;15.42;100.00;101545.09;10456121;28;20379;-73
2023/09/28 21:49:42;;;;;;;1999.90;999.90;;;;;;;15.34;100.00;101541.25;10456124;28;20485;-72